sensor_id;sensor_type;location;lat;lon;timestamp;P1;durP1;ratioP1;P2;durP2;ratioP2
39050;SDS011;24805;55.852;37.644;2022-12-19T00:01:57;1.88;;;0.85;;
39050;SDS011;24805;55.852;37.644;2022-12-19T00:06:59;3.13;;;1.35;;
39050;SDS011;24805;55.852;37.644;2022-12-19T00:12:02;3.05;;;1.50;;
39050;SDS011;24805;55.852;37.644;2022-12-19T00:17:04;3.22;;;1.40;;
39050;SDS011;24805;55.852;37.644;2022-12-19T00:22:06;4.25;;;1.52;;
39050;SDS011;24805;55.852;37.644;2022-12-19T00:27:11;3.53;;;1.40;;
39050;SDS011;24805;55.852;37.644;2022-12-19T00:32:14;3.35;;;1.40;;
39050;SDS011;24805;55.852;37.644;2022-12-19T00:37:17;3.80;;;1.48;;
39050;SDS011;24805;55.852;37.644;2022-12-19T00:42:19;5.50;;;2.28;;
39050;SDS011;24805;55.852;37.644;2022-12-19T00:47:22;4.20;;;1.42;;
39050;SDS011;24805;55.852;37.644;2022-12-19T00:52:24;3.65;;;1.63;;
39050;SDS011;24805;55.852;37.644;2022-12-19T00:57:30;3.38;;;1.58;;
39050;SDS011;24805;55.852;37.644;2022-12-19T01:02:32;4.40;;;1.98;;
39050;SDS011;24805;55.852;37.644;2022-12-19T01:07:35;5.38;;;2.65;;
39050;SDS011;24805;55.852;37.644;2022-12-19T01:12:37;7.00;;;2.95;;
39050;SDS011;24805;55.852;37.644;2022-12-19T01:17:48;4.93;;;2.53;;
39050;SDS011;24805;55.852;37.644;2022-12-19T01:22:52;6.85;;;3.22;;
39050;SDS011;24805;55.852;37.644;2022-12-19T01:27:54;5.53;;;2.72;;
39050;SDS011;24805;55.852;37.644;2022-12-19T01:32:57;3.95;;;2.15;;
39050;SDS011;24805;55.852;37.644;2022-12-19T01:38:00;5.85;;;2.33;;
39050;SDS011;24805;55.852;37.644;2022-12-19T01:43:12;6.40;;;2.40;;
39050;SDS011;24805;55.852;37.644;2022-12-19T01:48:25;6.32;;;2.60;;
39050;SDS011;24805;55.852;37.644;2022-12-19T01:53:37;5.95;;;2.00;;
39050;SDS011;24805;55.852;37.644;2022-12-19T01:58:50;4.15;;;2.05;;
39050;SDS011;24805;55.852;37.644;2022-12-19T02:04:10;4.45;;;2.20;;
39050;SDS011;24805;55.852;37.644;2022-12-19T02:09:13;6.32;;;2.75;;
39050;SDS011;24805;55.852;37.644;2022-12-19T02:14:16;5.25;;;2.47;;
39050;SDS011;24805;55.852;37.644;2022-12-19T02:19:51;6.72;;;2.60;;
39050;SDS011;24805;55.852;37.644;2022-12-19T02:30:44;4.82;;;1.90;;
39050;SDS011;24805;55.852;37.644;2022-12-19T02:35:52;6.03;;;2.45;;
39050;SDS011;24805;55.852;37.644;2022-12-19T02:41:07;6.53;;;2.40;;
39050;SDS011;24805;55.852;37.644;2022-12-19T02:46:17;4.75;;;2.25;;
39050;SDS011;24805;55.852;37.644;2022-12-19T02:51:21;5.47;;;2.25;;
39050;SDS011;24805;55.852;37.644;2022-12-19T03:01:48;5.27;;;2.27;;
39050;SDS011;24805;55.852;37.644;2022-12-19T03:07:04;8.05;;;3.22;;
39050;SDS011;24805;55.852;37.644;2022-12-19T03:12:34;7.97;;;2.20;;
39050;SDS011;24805;55.852;37.644;2022-12-19T03:17:47;5.13;;;2.67;;
39050;SDS011;24805;55.852;37.644;2022-12-19T03:22:50;7.45;;;3.05;;
39050;SDS011;24805;55.852;37.644;2022-12-19T03:27:52;7.22;;;2.83;;
39050;SDS011;24805;55.852;37.644;2022-12-19T03:32:56;6.78;;;3.20;;
39050;SDS011;24805;55.852;37.644;2022-12-19T03:38:00;6.60;;;2.55;;
39050;SDS011;24805;55.852;37.644;2022-12-19T03:43:05;6.03;;;2.58;;
39050;SDS011;24805;55.852;37.644;2022-12-19T03:48:18;8.18;;;3.10;;
39050;SDS011;24805;55.852;37.644;2022-12-19T03:53:33;6.07;;;2.28;;
39050;SDS011;24805;55.852;37.644;2022-12-19T03:58:44;4.10;;;2.28;;
39050;SDS011;24805;55.852;37.644;2022-12-19T04:03:53;4.57;;;1.75;;
39050;SDS011;24805;55.852;37.644;2022-12-19T04:08:57;6.07;;;2.38;;
39050;SDS011;24805;55.852;37.644;2022-12-19T04:14:01;4.88;;;2.55;;
39050;SDS011;24805;55.852;37.644;2022-12-19T04:19:10;4.28;;;2.15;;
39050;SDS011;24805;55.852;37.644;2022-12-19T04:24:18;5.07;;;2.40;;
39050;SDS011;24805;55.852;37.644;2022-12-19T04:29:27;5.72;;;2.70;;
39050;SDS011;24805;55.852;37.644;2022-12-19T04:34:33;6.82;;;2.47;;
39050;SDS011;24805;55.852;37.644;2022-12-19T04:39:41;7.85;;;2.95;;
39050;SDS011;24805;55.852;37.644;2022-12-19T04:44:43;6.25;;;2.70;;
39050;SDS011;24805;55.852;37.644;2022-12-19T04:49:45;8.13;;;3.92;;
39050;SDS011;24805;55.852;37.644;2022-12-19T04:54:47;7.57;;;3.40;;
39050;SDS011;24805;55.852;37.644;2022-12-19T04:59:49;7.40;;;2.70;;
39050;SDS011;24805;55.852;37.644;2022-12-19T05:04:51;7.45;;;2.83;;
39050;SDS011;24805;55.852;37.644;2022-12-19T05:09:53;9.77;;;4.22;;
39050;SDS011;24805;55.852;37.644;2022-12-19T05:14:55;5.32;;;2.67;;
39050;SDS011;24805;55.852;37.644;2022-12-19T05:19:57;6.40;;;2.88;;
39050;SDS011;24805;55.852;37.644;2022-12-19T05:25:00;6.85;;;3.42;;
39050;SDS011;24805;55.852;37.644;2022-12-19T05:30:03;6.30;;;2.70;;
39050;SDS011;24805;55.852;37.644;2022-12-19T05:35:06;6.45;;;2.63;;
39050;SDS011;24805;55.852;37.644;2022-12-19T05:40:09;7.10;;;2.25;;
39050;SDS011;24805;55.852;37.644;2022-12-19T05:45:13;8.00;;;3.05;;
39050;SDS011;24805;55.852;37.644;2022-12-19T05:50:16;5.95;;;3.17;;
39050;SDS011;24805;55.852;37.644;2022-12-19T05:55:24;6.43;;;2.92;;
39050;SDS011;24805;55.852;37.644;2022-12-19T06:00:26;6.20;;;2.55;;
39050;SDS011;24805;55.852;37.644;2022-12-19T06:05:29;6.78;;;2.80;;
39050;SDS011;24805;55.852;37.644;2022-12-19T06:10:31;9.95;;;3.65;;
39050;SDS011;24805;55.852;37.644;2022-12-19T06:15:34;6.45;;;2.95;;
39050;SDS011;24805;55.852;37.644;2022-12-19T06:20:36;6.80;;;2.65;;
39050;SDS011;24805;55.852;37.644;2022-12-19T06:25:39;6.70;;;3.17;;
39050;SDS011;24805;55.852;37.644;2022-12-19T06:30:41;10.02;;;3.78;;
39050;SDS011;24805;55.852;37.644;2022-12-19T06:35:43;8.65;;;3.78;;
39050;SDS011;24805;55.852;37.644;2022-12-19T06:40:45;6.47;;;2.97;;
39050;SDS011;24805;55.852;37.644;2022-12-19T06:46:06;8.85;;;3.50;;
39050;SDS011;24805;55.852;37.644;2022-12-19T06:51:08;9.00;;;3.20;;
39050;SDS011;24805;55.852;37.644;2022-12-19T06:56:10;7.32;;;3.80;;
39050;SDS011;24805;55.852;37.644;2022-12-19T07:01:15;4.93;;;2.72;;
39050;SDS011;24805;55.852;37.644;2022-12-19T07:06:18;7.38;;;3.58;;
39050;SDS011;24805;55.852;37.644;2022-12-19T07:11:20;7.13;;;3.53;;
39050;SDS011;24805;55.852;37.644;2022-12-19T07:16:22;5.50;;;2.80;;
39050;SDS011;24805;55.852;37.644;2022-12-19T07:21:26;6.78;;;3.70;;
39050;SDS011;24805;55.852;37.644;2022-12-19T07:26:29;10.57;;;3.40;;
39050;SDS011;24805;55.852;37.644;2022-12-19T07:31:32;9.48;;;3.45;;
39050;SDS011;24805;55.852;37.644;2022-12-19T07:36:34;8.75;;;3.75;;
39050;SDS011;24805;55.852;37.644;2022-12-19T07:41:36;8.18;;;3.47;;
39050;SDS011;24805;55.852;37.644;2022-12-19T07:46:39;7.32;;;3.38;;
39050;SDS011;24805;55.852;37.644;2022-12-19T07:51:41;8.27;;;4.07;;
39050;SDS011;24805;55.852;37.644;2022-12-19T07:56:43;4.90;;;2.83;;
39050;SDS011;24805;55.852;37.644;2022-12-19T08:01:45;6.65;;;3.78;;
39050;SDS011;24805;55.852;37.644;2022-12-19T08:06:47;9.68;;;2.85;;
39050;SDS011;24805;55.852;37.644;2022-12-19T08:11:49;8.45;;;3.85;;
39050;SDS011;24805;55.852;37.644;2022-12-19T08:16:51;6.93;;;4.10;;
39050;SDS011;24805;55.852;37.644;2022-12-19T08:22:13;7.90;;;3.55;;
39050;SDS011;24805;55.852;37.644;2022-12-19T08:27:15;8.25;;;3.83;;
39050;SDS011;24805;55.852;37.644;2022-12-19T08:32:18;8.13;;;3.75;;
39050;SDS011;24805;55.852;37.644;2022-12-19T08:37:22;6.68;;;3.10;;
39050;SDS011;24805;55.852;37.644;2022-12-19T08:42:25;7.45;;;3.67;;
39050;SDS011;24805;55.852;37.644;2022-12-19T08:47:27;10.73;;;3.95;;
39050;SDS011;24805;55.852;37.644;2022-12-19T08:52:29;6.93;;;3.80;;
39050;SDS011;24805;55.852;37.644;2022-12-19T08:57:31;6.97;;;2.80;;
39050;SDS011;24805;55.852;37.644;2022-12-19T09:02:33;9.02;;;4.25;;
39050;SDS011;24805;55.852;37.644;2022-12-19T09:07:36;8.57;;;4.00;;
39050;SDS011;24805;55.852;37.644;2022-12-19T09:12:40;6.82;;;3.40;;
39050;SDS011;24805;55.852;37.644;2022-12-19T09:17:42;6.55;;;3.10;;
39050;SDS011;24805;55.852;37.644;2022-12-19T09:22:44;10.82;;;4.22;;
39050;SDS011;24805;55.852;37.644;2022-12-19T09:27:46;8.95;;;3.67;;
39050;SDS011;24805;55.852;37.644;2022-12-19T09:33:09;9.10;;;4.60;;
39050;SDS011;24805;55.852;37.644;2022-12-19T09:38:11;8.90;;;5.10;;
39050;SDS011;24805;55.852;37.644;2022-12-19T09:43:27;7.97;;;3.80;;
39050;SDS011;24805;55.852;37.644;2022-12-19T09:48:41;8.05;;;3.83;;
39050;SDS011;24805;55.852;37.644;2022-12-19T10:04:47;8.30;;;4.35;;
39050;SDS011;24805;55.852;37.644;2022-12-19T10:10:17;8.80;;;3.88;;
39050;SDS011;24805;55.852;37.644;2022-12-19T10:21:18;9.30;;;4.22;;
39050;SDS011;24805;55.852;37.644;2022-12-19T10:26:53;10.00;;;3.80;;
39050;SDS011;24805;55.852;37.644;2022-12-19T10:37:28;8.48;;;3.72;;
39050;SDS011;24805;55.852;37.644;2022-12-19T10:48:14;10.38;;;4.38;;
39050;SDS011;24805;55.852;37.644;2022-12-19T10:53:28;9.13;;;4.95;;
39050;SDS011;24805;55.852;37.644;2022-12-19T10:58:36;9.10;;;3.90;;
39050;SDS011;24805;55.852;37.644;2022-12-19T11:03:43;7.35;;;4.07;;
39050;SDS011;24805;55.852;37.644;2022-12-19T11:08:50;9.18;;;4.25;;
39050;SDS011;24805;55.852;37.644;2022-12-19T11:13:52;13.75;;;5.13;;
39050;SDS011;24805;55.852;37.644;2022-12-19T11:24:58;7.72;;;3.92;;
39050;SDS011;24805;55.852;37.644;2022-12-19T11:30:22;8.48;;;4.30;;
39050;SDS011;24805;55.852;37.644;2022-12-19T11:35:55;9.52;;;4.60;;
39050;SDS011;24805;55.852;37.644;2022-12-19T11:41:00;10.48;;;5.57;;
39050;SDS011;24805;55.852;37.644;2022-12-19T11:57:01;11.05;;;4.57;;
39050;SDS011;24805;55.852;37.644;2022-12-19T12:02:30;9.43;;;5.25;;
39050;SDS011;24805;55.852;37.644;2022-12-19T12:07:28;10.13;;;5.47;;
39050;SDS011;24805;55.852;37.644;2022-12-19T12:13:05;8.18;;;4.43;;
39050;SDS011;24805;55.852;37.644;2022-12-19T12:19:18;12.52;;;5.43;;
39050;SDS011;24805;55.852;37.644;2022-12-19T12:30:13;12.25;;;5.10;;
39050;SDS011;24805;55.852;37.644;2022-12-19T12:35:38;9.07;;;5.00;;
39050;SDS011;24805;55.852;37.644;2022-12-19T12:46:25;9.18;;;4.82;;
39050;SDS011;24805;55.852;37.644;2022-12-19T12:51:31;11.93;;;5.22;;
39050;SDS011;24805;55.852;37.644;2022-12-19T12:56:35;9.45;;;4.57;;
39050;SDS011;24805;55.852;37.644;2022-12-19T13:01:38;10.77;;;5.25;;
39050;SDS011;24805;55.852;37.644;2022-12-19T13:06:42;9.18;;;4.70;;
39050;SDS011;24805;55.852;37.644;2022-12-19T13:12:13;8.57;;;4.10;;
39050;SDS011;24805;55.852;37.644;2022-12-19T13:22:37;10.68;;;4.97;;
39050;SDS011;24805;55.852;37.644;2022-12-19T13:27:45;9.48;;;4.88;;
39050;SDS011;24805;55.852;37.644;2022-12-19T13:43:44;10.02;;;4.90;;
39050;SDS011;24805;55.852;37.644;2022-12-19T13:48:51;9.65;;;5.18;;
39050;SDS011;24805;55.852;37.644;2022-12-19T13:53:57;9.65;;;4.93;;
39050;SDS011;24805;55.852;37.644;2022-12-19T13:59:01;10.10;;;5.82;;
39050;SDS011;24805;55.852;37.644;2022-12-19T14:04:08;10.07;;;5.55;;
39050;SDS011;24805;55.852;37.644;2022-12-19T14:15:19;9.98;;;5.50;;
39050;SDS011;24805;55.852;37.644;2022-12-19T14:26:34;11.35;;;6.03;;
39050;SDS011;24805;55.852;37.644;2022-12-19T14:31:57;15.30;;;5.82;;
39050;SDS011;24805;55.852;37.644;2022-12-19T14:37:26;9.52;;;5.30;;
39050;SDS011;24805;55.852;37.644;2022-12-19T14:42:54;11.00;;;5.65;;
39050;SDS011;24805;55.852;37.644;2022-12-19T14:59:37;14.07;;;6.45;;
39050;SDS011;24805;55.852;37.644;2022-12-19T15:04:45;10.07;;;5.43;;
39050;SDS011;24805;55.852;37.644;2022-12-19T15:10:13;12.20;;;6.13;;
39050;SDS011;24805;55.852;37.644;2022-12-19T15:15:52;10.63;;;5.22;;
39050;SDS011;24805;55.852;37.644;2022-12-19T15:21:01;14.05;;;6.70;;
39050;SDS011;24805;55.852;37.644;2022-12-19T15:26:06;14.20;;;6.70;;
39050;SDS011;24805;55.852;37.644;2022-12-19T15:36:28;11.88;;;6.15;;
39050;SDS011;24805;55.852;37.644;2022-12-19T15:41:30;11.63;;;6.32;;
39050;SDS011;24805;55.852;37.644;2022-12-19T15:46:32;9.48;;;5.72;;
39050;SDS011;24805;55.852;37.644;2022-12-19T15:51:34;8.07;;;5.07;;
39050;SDS011;24805;55.852;37.644;2022-12-19T15:56:37;10.10;;;5.25;;
39050;SDS011;24805;55.852;37.644;2022-12-19T16:01:42;10.43;;;5.90;;
39050;SDS011;24805;55.852;37.644;2022-12-19T16:06:45;13.48;;;6.13;;
39050;SDS011;24805;55.852;37.644;2022-12-19T16:11:47;9.07;;;5.10;;
39050;SDS011;24805;55.852;37.644;2022-12-19T16:16:51;10.93;;;5.90;;
39050;SDS011;24805;55.852;37.644;2022-12-19T16:22:05;12.04;;;5.70;;
39050;SDS011;24805;55.852;37.644;2022-12-19T16:27:30;11.23;;;5.63;;
39050;SDS011;24805;55.852;37.644;2022-12-19T16:32:32;10.10;;;6.03;;
39050;SDS011;24805;55.852;37.644;2022-12-19T16:37:34;10.15;;;5.93;;
39050;SDS011;24805;55.852;37.644;2022-12-19T16:42:37;9.05;;;4.75;;
39050;SDS011;24805;55.852;37.644;2022-12-19T16:47:39;8.20;;;4.35;;
39050;SDS011;24805;55.852;37.644;2022-12-19T16:52:42;10.27;;;5.30;;
39050;SDS011;24805;55.852;37.644;2022-12-19T16:57:44;10.60;;;5.22;;
39050;SDS011;24805;55.852;37.644;2022-12-19T17:02:52;12.77;;;5.70;;
39050;SDS011;24805;55.852;37.644;2022-12-19T17:07:59;7.80;;;4.30;;
39050;SDS011;24805;55.852;37.644;2022-12-19T17:13:01;7.80;;;5.07;;
39050;SDS011;24805;55.852;37.644;2022-12-19T17:18:14;10.07;;;5.25;;
39050;SDS011;24805;55.852;37.644;2022-12-19T17:23:22;9.35;;;4.75;;
39050;SDS011;24805;55.852;37.644;2022-12-19T17:28:25;8.52;;;4.65;;
39050;SDS011;24805;55.852;37.644;2022-12-19T17:33:35;12.48;;;4.95;;
39050;SDS011;24805;55.852;37.644;2022-12-19T17:38:40;8.60;;;4.68;;
39050;SDS011;24805;55.852;37.644;2022-12-19T17:43:42;8.68;;;4.88;;
39050;SDS011;24805;55.852;37.644;2022-12-19T17:48:45;9.70;;;5.15;;
39050;SDS011;24805;55.852;37.644;2022-12-19T17:53:50;8.23;;;4.60;;
39050;SDS011;24805;55.852;37.644;2022-12-19T17:58:52;7.30;;;3.90;;
39050;SDS011;24805;55.852;37.644;2022-12-19T18:03:57;5.60;;;3.90;;
39050;SDS011;24805;55.852;37.644;2022-12-19T18:09:00;10.13;;;4.60;;
39050;SDS011;24805;55.852;37.644;2022-12-19T18:14:03;10.63;;;4.95;;
39050;SDS011;24805;55.852;37.644;2022-12-19T18:19:06;9.32;;;4.57;;
39050;SDS011;24805;55.852;37.644;2022-12-19T18:24:25;8.23;;;4.72;;
39050;SDS011;24805;55.852;37.644;2022-12-19T18:29:27;8.75;;;4.20;;
39050;SDS011;24805;55.852;37.644;2022-12-19T18:34:29;9.60;;;4.80;;
39050;SDS011;24805;55.852;37.644;2022-12-19T18:39:34;8.50;;;3.85;;
39050;SDS011;24805;55.852;37.644;2022-12-19T18:44:36;8.77;;;4.40;;
39050;SDS011;24805;55.852;37.644;2022-12-19T18:49:38;7.65;;;4.53;;
39050;SDS011;24805;55.852;37.644;2022-12-19T18:54:41;9.15;;;4.80;;
39050;SDS011;24805;55.852;37.644;2022-12-19T18:59:43;10.90;;;4.25;;
39050;SDS011;24805;55.852;37.644;2022-12-19T19:04:45;8.23;;;4.20;;
39050;SDS011;24805;55.852;37.644;2022-12-19T19:09:47;6.95;;;4.03;;
39050;SDS011;24805;55.852;37.644;2022-12-19T19:15:08;9.57;;;5.17;;
39050;SDS011;24805;55.852;37.644;2022-12-19T19:20:11;8.93;;;4.60;;
39050;SDS011;24805;55.852;37.644;2022-12-19T19:25:13;12.65;;;4.97;;
39050;SDS011;24805;55.852;37.644;2022-12-19T19:30:16;8.40;;;4.53;;
39050;SDS011;24805;55.852;37.644;2022-12-19T19:35:18;9.15;;;4.90;;
39050;SDS011;24805;55.852;37.644;2022-12-19T19:40:22;10.05;;;3.83;;
39050;SDS011;24805;55.852;37.644;2022-12-19T19:45:24;10.30;;;4.35;;
39050;SDS011;24805;55.852;37.644;2022-12-19T19:50:28;9.30;;;5.38;;
39050;SDS011;24805;55.852;37.644;2022-12-19T19:55:30;9.05;;;4.40;;
39050;SDS011;24805;55.852;37.644;2022-12-19T20:00:32;9.40;;;4.30;;
39050;SDS011;24805;55.852;37.644;2022-12-19T20:05:34;9.73;;;4.03;;
39050;SDS011;24805;55.852;37.644;2022-12-19T20:10:36;9.73;;;4.40;;
39050;SDS011;24805;55.852;37.644;2022-12-19T20:15:39;7.53;;;3.85;;
39050;SDS011;24805;55.852;37.644;2022-12-19T20:20:49;9.00;;;4.77;;
39050;SDS011;24805;55.852;37.644;2022-12-19T20:25:51;7.68;;;4.10;;
39050;SDS011;24805;55.852;37.644;2022-12-19T20:30:53;8.27;;;4.35;;
39050;SDS011;24805;55.852;37.644;2022-12-19T20:35:56;7.03;;;3.90;;
39050;SDS011;24805;55.852;37.644;2022-12-19T20:40:58;7.30;;;4.15;;
39050;SDS011;24805;55.852;37.644;2022-12-19T20:46:05;6.40;;;3.92;;
39050;SDS011;24805;55.852;37.644;2022-12-19T20:51:08;7.97;;;3.72;;
39050;SDS011;24805;55.852;37.644;2022-12-19T20:56:14;8.10;;;3.97;;
39050;SDS011;24805;55.852;37.644;2022-12-19T21:01:20;8.45;;;4.00;;
39050;SDS011;24805;55.852;37.644;2022-12-19T21:06:23;7.72;;;3.88;;
39050;SDS011;24805;55.852;37.644;2022-12-19T21:11:28;7.32;;;3.63;;
39050;SDS011;24805;55.852;37.644;2022-12-19T21:16:30;7.43;;;4.68;;
39050;SDS011;24805;55.852;37.644;2022-12-19T21:21:33;7.13;;;4.07;;
39050;SDS011;24805;55.852;37.644;2022-12-19T21:26:35;10.82;;;4.00;;
39050;SDS011;24805;55.852;37.644;2022-12-19T21:31:37;8.40;;;4.47;;
39050;SDS011;24805;55.852;37.644;2022-12-19T21:36:39;8.57;;;4.05;;
39050;SDS011;24805;55.852;37.644;2022-12-19T21:41:41;8.82;;;4.63;;
39050;SDS011;24805;55.852;37.644;2022-12-19T21:46:43;7.30;;;4.05;;
39050;SDS011;24805;55.852;37.644;2022-12-19T21:51:45;9.32;;;4.20;;
39050;SDS011;24805;55.852;37.644;2022-12-19T21:56:47;8.55;;;4.25;;
39050;SDS011;24805;55.852;37.644;2022-12-19T22:01:49;9.77;;;4.60;;
39050;SDS011;24805;55.852;37.644;2022-12-19T22:06:52;7.78;;;4.03;;
39050;SDS011;24805;55.852;37.644;2022-12-19T22:11:54;14.38;;;5.35;;
39050;SDS011;24805;55.852;37.644;2022-12-19T22:16:56;9.73;;;4.70;;
39050;SDS011;24805;55.852;37.644;2022-12-19T22:21:58;7.93;;;4.30;;
39050;SDS011;24805;55.852;37.644;2022-12-19T22:27:00;8.10;;;4.50;;
39050;SDS011;24805;55.852;37.644;2022-12-19T22:32:03;8.40;;;4.32;;
39050;SDS011;24805;55.852;37.644;2022-12-19T22:37:05;9.43;;;4.70;;
39050;SDS011;24805;55.852;37.644;2022-12-19T22:42:07;7.30;;;4.13;;
39050;SDS011;24805;55.852;37.644;2022-12-19T22:47:10;8.40;;;4.38;;
39050;SDS011;24805;55.852;37.644;2022-12-19T22:52:12;10.13;;;4.88;;
39050;SDS011;24805;55.852;37.644;2022-12-19T22:57:14;8.32;;;4.35;;
39050;SDS011;24805;55.852;37.644;2022-12-19T23:02:16;7.78;;;4.32;;
39050;SDS011;24805;55.852;37.644;2022-12-19T23:07:18;8.40;;;4.40;;
39050;SDS011;24805;55.852;37.644;2022-12-19T23:12:20;10.88;;;4.75;;
39050;SDS011;24805;55.852;37.644;2022-12-19T23:17:22;9.77;;;4.90;;
39050;SDS011;24805;55.852;37.644;2022-12-19T23:22:25;8.63;;;4.75;;
39050;SDS011;24805;55.852;37.644;2022-12-19T23:27:27;8.70;;;4.90;;
39050;SDS011;24805;55.852;37.644;2022-12-19T23:32:29;8.07;;;4.88;;
39050;SDS011;24805;55.852;37.644;2022-12-19T23:37:32;10.30;;;5.78;;
39050;SDS011;24805;55.852;37.644;2022-12-19T23:42:34;7.28;;;4.57;;
39050;SDS011;24805;55.852;37.644;2022-12-19T23:47:36;7.63;;;3.40;;
39050;SDS011;24805;55.852;37.644;2022-12-19T23:52:38;6.82;;;4.03;;
39050;SDS011;24805;55.852;37.644;2022-12-19T23:57:42;9.13;;;4.60;;
